Terminal Aerodrome Forecast
Issued by NWS Blacksburg, VA

Home | Current Version | Previous Version | Text Only | Print | Product List | Glossary On
Versions: 1 2 3 4 5 6 7 8 9 10 11 12 13 14 15 16 17 18 19 20 21 22 23 24 25 26 27 28 29 30 31 32 33 34 35 36 37 38 39 40 41 42 43 44 45 46
000
FTUS41 KRNK 032333
TAFLYH
TAF
KLYH 032333Z 0400/0424 20006KT P6SM OVC015 WS019/23044KT
      TEMPO 0401/0402 -RA
     FM040400 22006KT 4SM BR OVC012 WS018/24046KT
     FM040900 22006KT 2SM BR OVC008 WS020/24060KT
     FM041300 22005KT 4SM BR OVC008
     FM042000 36004KT 5SM -RA OVC010=

USA.gov is the U.S. government's official web portal to all federal, state and local government web resources and services.